Terminal Aerodrome Forecast
Issued by NWS

Home | Current Version | Previous Version | Text Only | Print | Product List | Glossary On
Versions: 1 2 3 4 5 6 7 8 9 10 11 12 13
000
FTUS43 KMQT 161100
TAFSAW
TAF
KSAW 161120Z 1612/1712 25007KT P6SM SCT150
     FM161500 24011G18KT P6SM SCT120
     FM170000 25005KT P6SM BKN060
      AMD LTD TO CLD VIS AND WIND 1702/1710=

USA.gov is the U.S. government's official web portal to all federal, state and local government web resources and services.